^^
Your Local Weather - Clay, NY Station Historical Data
Daily Summary for June 2, 2017 Units:  English    Metric   Both
« Previous Day
Next Day »
Daily Weekly Monthly Yearly Custom
  High: Low: Average:
Temperature: 63.2 °F 45.1 °F 55.3 °F
Dew Point: 48.8 °F 38.9 °F 43.2 °F
Humidity: 91% 44% 66%
Wind Speed: 5.0mph 0.0mph 1.4mph
Wind Gust: 9.0mph - -
Wind- - WNW
Pressure: 29.97 in 29.91 in -
Precipitation: 0.00 in    
Historical Graphs
 
 
Tabular Data for June 2, 2017
Time Temperature Dew Point Pressure Wind Wind Speed Wind Gust Humidity Rainfall Rate (Hourly) solar
00:00 50.3 °F 41.6 °F 29.94 in Calm     72% 0.00 in 0 W/m2
00:06 50.3 °F 41.6 °F 29.94 in Calm     72% 0.00 in 0 W/m2
00:12 50.1 °F 41.1 °F 29.94 in Calm   2.0 mph 71% 0.00 in 0 W/m2
00:18 50.1 °F 41.8 °F 29.94 in SSW 1.0 mph 2.0 mph 73% 0.00 in 0 W/m2
00:24 50.1 °F 41.8 °F 29.94 in SSW 1.0 mph 1.0 mph 73% 0.00 in 0 W/m2
00:30 50.0 °F 41.7 °F 29.94 in SSW 1.0 mph 1.0 mph 73% 0.00 in 0 W/m2
00:36 49.9 °F 41.6 °F 29.94 in Calm   1.0 mph 73% 0.00 in 0 W/m2
00:42 49.8 °F 41.5 °F 29.94 in Calm   1.0 mph 73% 0.00 in 0 W/m2
00:48 49.7 °F 41.7 °F 29.94 in Calm   1.0 mph 74% 0.00 in 0 W/m2
00:54 49.6 °F 42.0 °F 29.94 in Calm     75% 0.00 in 0 W/m2
01:00 49.3 °F 41.7 °F 29.94 in Calm     75% 0.00 in 0 W/m2
01:06 49.1 °F 41.9 °F 29.94 in Calm     76% 0.00 in 0 W/m2
01:12 49.2 °F 42.6 °F 29.94 in Calm   1.0 mph 78% 0.00 in 0 W/m2
01:18 49.3 °F 42.7 °F 29.94 in Calm   1.0 mph 78% 0.00 in 0 W/m2
01:24 49.3 °F 43.1 °F 29.93 in Calm     79% 0.00 in 0 W/m2
01:30 49.1 °F 43.5 °F 29.93 in Calm     81% 0.00 in 0 W/m2
01:36 48.8 °F 43.2 °F 29.93 in Calm     81% 0.00 in 0 W/m2
01:42 48.6 °F 43.4 °F 29.93 in Calm     82% 0.00 in 0 W/m2
01:48 48.4 °F 43.8 °F 29.93 in Calm     84% 0.00 in 0 W/m2
01:54 48.1 °F 43.5 °F 29.92 in Calm     84% 0.00 in 0 W/m2
02:00 48.0 °F 43.4 °F 29.92 in Calm     84% 0.00 in 0 W/m2
02:06 47.8 °F 43.5 °F 29.92 in Calm     85% 0.00 in 0 W/m2
02:12 47.5 °F 43.2 °F 29.92 in Calm     85% 0.00 in 0 W/m2
02:18 47.3 °F 43.0 °F 29.92 in Calm     85% 0.00 in 0 W/m2
02:24 47.2 °F 43.2 °F 29.92 in Calm     86% 0.00 in 0 W/m2
02:30 47.3 °F 43.3 °F 29.92 in Calm     86% 0.00 in 0 W/m2
02:36 47.4 °F 43.7 °F 29.92 in Calm     87% 0.00 in 0 W/m2
02:42 47.6 °F 43.9 °F 29.92 in Calm     87% 0.00 in 0 W/m2
02:48 48.0 °F 44.6 °F 29.92 in Calm     88% 0.00 in 0 W/m2
02:54 48.1 °F 44.7 °F 29.92 in Calm     88% 0.00 in 0 W/m2
03:00 48.2 °F 44.8 °F 29.92 in Calm     88% 0.00 in 0 W/m2
03:06 48.3 °F 44.6 °F 29.92 in Calm   1.0 mph 87% 0.00 in 0 W/m2
03:12 48.3 °F 44.6 °F 29.92 in Calm     87% 0.00 in 0 W/m2
03:18 48.3 °F 44.6 °F 29.92 in Calm     87% 0.00 in 0 W/m2
03:24 48.3 °F 44.3 °F 29.92 in Calm     86% 0.00 in 0 W/m2
03:30 48.4 °F 44.1 °F 29.92 in Calm     85% 0.00 in 0 W/m2
03:36 48.5 °F 44.2 °F 29.92 in Calm     85% 0.00 in 0 W/m2
03:42 48.7 °F 44.4 °F 29.92 in Calm     85% 0.00 in 0 W/m2
03:48 48.9 °F 44.3 °F 29.92 in Calm     84% 0.00 in 0 W/m2
03:54 49.0 °F 44.4 °F 29.92 in Calm     84% 0.00 in 0 W/m2
04:00 49.1 °F 44.5 °F 29.91 in Calm     84% 0.00 in 0 W/m2
04:06 49.2 °F 44.3 °F 29.91 in Calm     83% 0.00 in 0 W/m2
04:12 49.1 °F 44.2 °F 29.91 in Calm     83% 0.00 in 0 W/m2
04:24 49.1 °F 44.2 °F 29.91 in Calm     83% 0.00 in 0 W/m2
04:30 49.0 °F 44.1 °F 29.91 in Calm     83% 0.00 in 0 W/m2
04:36 48.9 °F 44.0 °F 29.91 in Calm     83% 0.00 in 0 W/m2
04:42 48.6 °F 44.0 °F 29.91 in Calm     84% 0.00 in 0 W/m2
04:48 48.2 °F 43.6 °F 29.91 in Calm     84% 0.00 in 0 W/m2
04:54 47.7 °F 43.1 °F 29.91 in Calm     84% 0.00 in 0 W/m2
05:00 47.4 °F 43.1 °F 29.91 in Calm     85% 0.00 in 0 W/m2
05:06 47.1 °F 42.8 °F 29.91 in Calm     85% 0.00 in 0 W/m2
05:12 46.8 °F 42.8 °F 29.91 in Calm     86% 0.00 in 0 W/m2
05:18 46.5 °F 42.5 °F 29.91 in Calm     86% 0.00 in 0 W/m2
05:24 46.2 °F 42.5 °F 29.91 in Calm     87% 0.00 in 0 W/m2
05:30 45.9 °F 42.2 °F 29.91 in Calm     87% 0.00 in 5 W/m2
05:36 45.7 °F 42.1 °F 29.91 in Calm     87% 0.00 in 7 W/m2
05:42 45.5 °F 42.2 °F 29.91 in Calm     88% 0.00 in 9 W/m2
05:48 45.3 °F 42.0 °F 29.91 in Calm     88% 0.00 in 11 W/m2
05:54 45.3 °F 42.2 °F 29.92 in Calm     89% 0.00 in 12 W/m2
06:00 45.1 °F 42.1 °F 29.92 in Calm     89% 0.00 in 16 W/m2
06:06 45.1 °F 42.1 °F 29.92 in Calm     89% 0.00 in 19 W/m2
06:12 45.1 °F 42.1 °F 29.92 in Calm     89% 0.00 in 23 W/m2
06:18 45.2 °F 42.4 °F 29.92 in Calm     90% 0.00 in 62 W/m2
06:24 45.8 °F 43.0 °F 29.92 in Calm     90% 0.00 in 132 W/m2
06:30 46.8 °F 44.3 °F 29.92 in Calm     91% 0.00 in 104 W/m2
06:36 46.9 °F 44.4 °F 29.92 in Calm     91% 0.00 in 65 W/m2
06:42 47.6 °F 45.1 °F 29.92 in Calm     91% 0.00 in 209 W/m2
06:48 48.7 °F 46.2 °F 29.92 in Calm     91% 0.00 in 93 W/m2
06:54 49.1 °F 46.6 °F 29.92 in Calm     91% 0.00 in 69 W/m2
07:00 49.5 °F 46.7 °F 29.92 in Calm     90% 0.00 in 132 W/m2
07:06 49.8 °F 47.0 °F 29.92 in Calm     90% 0.00 in 142 W/m2
07:12 50.2 °F 46.8 °F 29.93 in Calm     88% 0.00 in 84 W/m2
07:18 51.2 °F 47.5 °F 29.93 in Calm     87% 0.00 in 120 W/m2
07:24 51.8 °F 47.4 °F 29.93 in Calm   1.0 mph 85% 0.00 in 123 W/m2
07:30 52.3 °F 47.0 °F 29.93 in Calm     82% 0.00 in 127 W/m2
07:36 52.6 °F 46.9 °F 29.93 in Calm     81% 0.00 in 120 W/m2
07:42 52.8 °F 46.5 °F 29.93 in Calm   1.0 mph 79% 0.00 in 144 W/m2
07:48 53.3 °F 46.6 °F 29.93 in SW 1.0 mph 1.0 mph 78% 0.00 in 480 W/m2
07:54 53.9 °F 46.5 °F 29.93 in SW 1.0 mph 2.0 mph 76% 0.00 in 438 W/m2
08:00 54.6 °F 47.5 °F 29.93 in Calm     77% 0.00 in 387 W/m2
08:06 55.2 °F 46.7 °F 29.93 in SW 1.0 mph 2.0 mph 73% 0.00 in 459 W/m2
08:12 55.3 °F 46.4 °F 29.94 in WSW 1.0 mph 2.0 mph 72% 0.00 in 371 W/m2
08:18 55.7 °F 46.8 °F 29.94 in WSW 1.0 mph 2.0 mph 72% 0.00 in 179 W/m2
08:24 56.3 °F 47.0 °F 29.94 in Calm   1.0 mph 71% 0.00 in 512 W/m2
08:30 57.0 °F 46.5 °F 29.94 in Calm     68% 0.00 in 490 W/m2
08:36 57.5 °F 47.4 °F 29.94 in SE 1.0 mph 1.0 mph 69% 0.00 in 496 W/m2
08:42 58.5 °F 47.2 °F 29.94 in WSW 1.0 mph 1.0 mph 66% 0.00 in 512 W/m2
08:48 59.1 °F 46.5 °F 29.94 in WSW 1.0 mph 1.0 mph 63% 0.00 in 529 W/m2
08:54 59.5 °F 46.9 °F 29.94 in West 1.0 mph 1.0 mph 63% 0.00 in 545 W/m2
09:00 59.7 °F 47.1 °F 29.94 in SW 1.0 mph 1.0 mph 63% 0.00 in 566 W/m2
09:06 60.0 °F 46.1 °F 29.94 in SW 1.0 mph 3.0 mph 60% 0.00 in 587 W/m2
09:12 60.1 °F 47.5 °F 29.94 in SW 1.0 mph 1.0 mph 63% 0.00 in 86 W/m2
09:18 59.8 °F 46.3 °F 29.94 in SSE 1.0 mph 5.0 mph 61% 0.00 in 195 W/m2
09:24 59.8 °F 47.6 °F 29.94 in WNW 2.0 mph 3.0 mph 64% 0.00 in 747 W/m2
09:30 60.2 °F 46.3 °F 29.94 in West 2.0 mph 2.0 mph 60% 0.00 in 759 W/m2
09:36 60.6 °F 48.8 °F 29.94 in NW 2.0 mph 2.0 mph 65% 0.00 in 659 W/m2
09:42 60.8 °F 46.8 °F 29.94 in NW 2.0 mph 2.0 mph 60% 0.00 in 707 W/m2
09:48 60.9 °F 46.9 °F 29.94 in NW 1.0 mph 4.0 mph 60% 0.00 in 731 W/m2
09:54 60.5 °F 45.2 °F 29.94 in NW 2.0 mph 5.0 mph 57% 0.00 in 742 W/m2
10:00 60.7 °F 45.4 °F 29.94 in NW 2.0 mph 2.0 mph 57% 0.00 in 773 W/m2
10:06 60.8 °F 46.4 °F 29.94 in NNW 2.0 mph 3.0 mph 59% 0.00 in 773 W/m2
10:12 60.9 °F 44.1 °F 29.94 in WNW 2.0 mph 3.0 mph 54% 0.00 in 786 W/m2
10:18 61.0 °F 43.7 °F 29.94 in WNW 3.0 mph 5.0 mph 53% 0.00 in 802 W/m2
10:24 61.6 °F 44.8 °F 29.94 in WSW 3.0 mph 3.0 mph 54% 0.00 in 810 W/m2
10:30 61.8 °F 44.5 °F 29.94 in NNW 3.0 mph 3.0 mph 53% 0.00 in 849 W/m2
10:36 62.4 °F 45.5 °F 29.94 in WSW 2.0 mph 4.0 mph 54% 0.00 in 858 W/m2
10:42 62.8 °F 45.9 °F 29.94 in WNW 2.0 mph 2.0 mph 54% 0.00 in 937 W/m2
10:48 61.8 °F 41.9 °F 29.94 in West 2.0 mph 3.0 mph 48% 0.00 in 204 W/m2
10:54 62.0 °F 42.6 °F 29.94 in NW 3.0 mph 4.0 mph 49% 0.00 in 884 W/m2
11:00 62.2 °F 41.7 °F 29.94 in West 3.0 mph 3.0 mph 47% 0.00 in 884 W/m2
11:12 63.2 °F 41.5 °F 29.94 in West 2.0 mph 2.0 mph 45% 0.00 in 1007 W/m2
11:18 62.8 °F 41.1 °F 29.95 in NW 2.0 mph 5.0 mph 45% 0.00 in 986 W/m2
11:24 62.3 °F 42.3 °F 29.95 in SW 3.0 mph 3.0 mph 48% 0.00 in 909 W/m2
11:30 61.6 °F 44.8 °F 29.94 in NW 4.0 mph 4.0 mph 54% 0.00 in 919 W/m2
11:36 62.1 °F 43.2 °F 29.94 in WNW 4.0 mph 6.0 mph 50% 0.00 in 925 W/m2
11:42 62.5 °F 42.5 °F 29.94 in West 4.0 mph 5.0 mph 48% 0.00 in 935 W/m2
11:48 62.3 °F 47.3 °F 29.95 in NW 3.0 mph 5.0 mph 58% 0.00 in 991 W/m2
11:54 62.7 °F 45.8 °F 29.95 in SSW 3.0 mph 4.0 mph 54% 0.00 in 1202 W/m2
12:00 62.9 °F 47.4 °F 29.95 in NW 3.0 mph 3.0 mph 57% 0.00 in 633 W/m2
12:06 62.3 °F 42.3 °F 29.95 in NW 3.0 mph 3.0 mph 48% 0.00 in 352 W/m2
12:12 62.1 °F 46.2 °F 29.95 in West 3.0 mph 3.0 mph 56% 0.00 in 984 W/m2
12:18 62.1 °F 42.7 °F 29.95 in WSW 3.0 mph 4.0 mph 49% 0.00 in 984 W/m2
12:24 61.8 °F 45.9 °F 29.95 in NW 3.0 mph 5.0 mph 56% 0.00 in 905 W/m2
12:30 61.7 °F 42.3 °F 29.95 in WSW 4.0 mph 4.0 mph 49% 0.00 in 905 W/m2
12:36 61.9 °F 43.6 °F 29.95 in SSW 3.0 mph 4.0 mph 51% 0.00 in 1049 W/m2
12:42 62.4 °F 44.5 °F 29.95 in NW 3.0 mph 5.0 mph 52% 0.00 in 891 W/m2
12:48 63.0 °F 45.1 °F 29.95 in WSW 2.0 mph 5.0 mph 52% 0.00 in 995 W/m2
12:54 61.5 °F 45.2 °F 29.95 in SW 4.0 mph 4.0 mph 55% 0.00 in 1009 W/m2
13:00 61.4 °F 42.6 °F 29.95 in NW 4.0 mph 4.0 mph 50% 0.00 in 983 W/m2
13:06 61.4 °F 42.6 °F 29.95 in NW 3.0 mph 4.0 mph 50% 0.00 in 1011 W/m2
13:12 62.2 °F 45.8 °F 29.95 in WNW 4.0 mph 4.0 mph 55% 0.00 in 1013 W/m2
13:18 62.1 °F 41.6 °F 29.96 in NW 3.0 mph 5.0 mph 47% 0.00 in 981 W/m2
13:24 61.5 °F 41.1 °F 29.95 in WNW 3.0 mph 4.0 mph 47% 0.00 in 979 W/m2
13:30 61.6 °F 43.8 °F 29.96 in NW 4.0 mph 5.0 mph 52% 0.00 in 991 W/m2
13:36 62.3 °F 46.4 °F 29.96 in NNW 3.0 mph 5.0 mph 56% 0.00 in 1023 W/m2
13:42 62.3 °F 43.9 °F 29.96 in West 3.0 mph 7.0 mph 51% 0.00 in 995 W/m2
13:48 61.7 °F 42.9 °F 29.96 in NNW 4.0 mph 7.0 mph 50% 0.00 in 967 W/m2
13:54 62.2 °F 43.3 °F 29.96 in WNW 4.0 mph 4.0 mph 50% 0.00 in 977 W/m2
14:00 61.7 °F 41.8 °F 29.96 in NW 3.0 mph 3.0 mph 48% 0.00 in 974 W/m2
14:06 61.4 °F 43.1 °F 29.96 in WNW 4.0 mph 7.0 mph 51% 0.00 in 993 W/m2
14:12 61.7 °F 44.9 °F 29.96 in NW 3.0 mph 9.0 mph 54% 0.00 in 998 W/m2
14:18 62.4 °F 45.0 °F 29.97 in NW 3.0 mph 9.0 mph 53% 0.00 in 1014 W/m2
14:24 61.1 °F 41.2 °F 29.96 in NW 4.0 mph 7.0 mph 48% 0.00 in 529 W/m2
14:30 60.9 °F 41.6 °F 29.96 in WNW 4.0 mph 6.0 mph 49% 0.00 in 251 W/m2
14:36 60.4 °F 40.6 °F 29.97 in WNW 4.0 mph 6.0 mph 48% 0.00 in 1139 W/m2
14:42 60.6 °F 40.2 °F 29.97 in NW 4.0 mph 4.0 mph 47% 0.00 in 294 W/m2
14:48 60.1 °F 40.9 °F 29.96 in WNW 4.0 mph 5.0 mph 49% 0.00 in 241 W/m2
14:54 60.8 °F 41.0 °F 29.96 in NW 3.0 mph 7.0 mph 48% 0.00 in 1030 W/m2
15:00 60.5 °F 43.3 °F 29.96 in NNW 3.0 mph 5.0 mph 53% 0.00 in 914 W/m2
15:06 61.7 °F 42.3 °F 29.96 in WNW 3.0 mph 5.0 mph 49% 0.00 in 956 W/m2
15:12 62.0 °F 43.1 °F 29.96 in WSW 3.0 mph 3.0 mph 50% 0.00 in 814 W/m2
15:18 61.9 °F 42.0 °F 29.97 in NNW 3.0 mph 6.0 mph 48% 0.00 in 188 W/m2
15:24 61.4 °F 43.1 °F 29.96 in NW 3.0 mph 7.0 mph 51% 0.00 in 211 W/m2
15:30 61.5 °F 43.2 °F 29.96 in NW 3.0 mph 3.0 mph 51% 0.00 in 325 W/m2
15:36 60.9 °F 42.1 °F 29.96 in NW 4.0 mph 4.0 mph 50% 0.00 in 297 W/m2
15:42 61.1 °F 42.3 °F 29.96 in NNW 5.0 mph 5.0 mph 50% 0.00 in 940 W/m2
15:48 61.6 °F 41.7 °F 29.96 in NW 4.0 mph 5.0 mph 48% 0.00 in 279 W/m2
15:54 61.8 °F 43.5 °F 29.96 in NW 4.0 mph 6.0 mph 51% 0.00 in 895 W/m2
16:00 60.6 °F 41.8 °F 29.96 in NW 4.0 mph 4.0 mph 50% 0.00 in 216 W/m2
16:06 60.2 °F 42.5 °F 29.96 in NNW 4.0 mph 7.0 mph 52% 0.00 in 216 W/m2
16:12 60.9 °F 42.6 °F 29.96 in NW 4.0 mph 6.0 mph 51% 0.00 in 288 W/m2
16:18 60.5 °F 41.2 °F 29.96 in NNW 4.0 mph 6.0 mph 49% 0.00 in 183 W/m2
16:24 60.9 °F 41.1 °F 29.96 in WNW 4.0 mph 5.0 mph 48% 0.00 in 413 W/m2
16:30 61.8 °F 42.4 °F 29.96 in NNW 4.0 mph 7.0 mph 49% 0.00 in 336 W/m2
16:36 61.3 °F 42.0 °F 29.96 in NNW 3.0 mph 7.0 mph 49% 0.00 in 214 W/m2
16:42 60.7 °F 41.9 °F 29.96 in North 4.0 mph 6.0 mph 50% 0.00 in 172 W/m2
16:50 60.5 °F 40.7 °F 29.95 in WNW 4.0 mph 4.0 mph 48% 0.00 in 167 W/m2
16:56 60.8 °F 42.0 °F 29.95 in WNW 4.0 mph 4.0 mph 50% 0.00 in 253 W/m2
17:04 61.2 °F 41.3 °F 29.95 in WNW 4.0 mph 4.0 mph 48% 0.00 in 91 W/m2
17:10 60.9 °F 42.6 °F 29.95 in NW 3.0 mph 3.0 mph 51% 0.00 in 127 W/m2
17:16 61.0 °F 40.6 °F 29.95 in NW 3.0 mph 3.0 mph 47% 0.00 in 114 W/m2
17:22 61.6 °F 41.7 °F 29.95 in WNW 3.0 mph 6.0 mph 48% 0.00 in 102 W/m2
17:28 61.8 °F 41.3 °F 29.95 in NW 4.0 mph 6.0 mph 47% 0.00 in 116 W/m2
17:34 61.6 °F 41.7 °F 29.95 in NW 3.0 mph 4.0 mph 48% 0.00 in 93 W/m2
17:40 61.6 °F 40.6 °F 29.95 in NW 3.0 mph 3.0 mph 46% 0.00 in 142 W/m2
17:46 61.4 °F 42.6 °F 29.95 in NW 3.0 mph 6.0 mph 50% 0.00 in 190 W/m2
17:52 61.2 °F 40.8 °F 29.94 in WNW 3.0 mph 3.0 mph 47% 0.00 in 142 W/m2
17:58 60.9 °F 40.5 °F 29.95 in NW 4.0 mph 5.0 mph 47% 0.00 in 167 W/m2
18:04 60.7 °F 40.9 °F 29.95 in NW 3.0 mph 4.0 mph 48% 0.00 in 176 W/m2
18:10 60.9 °F 41.1 °F 29.94 in NW 3.0 mph 3.0 mph 48% 0.00 in 141 W/m2
18:16 61.1 °F 40.7 °F 29.94 in NNE 4.0 mph 6.0 mph 47% 0.00 in 125 W/m2
18:22 61.1 °F 39.6 °F 29.94 in NNW 3.0 mph 3.0 mph 45% 0.00 in 127 W/m2
18:28 61.6 °F 40.6 °F 29.94 in West 3.0 mph 3.0 mph 46% 0.00 in 69 W/m2
18:34 61.5 °F 39.4 °F 29.94 in NW 3.0 mph 8.0 mph 44% 0.00 in 40 W/m2
18:40 61.3 °F 40.3 °F 29.95 in SSW 3.0 mph 5.0 mph 46% 0.00 in 37 W/m2
18:46 61.1 °F 39.6 °F 29.94 in WNW 3.0 mph 5.0 mph 45% 0.00 in 40 W/m2
18:52 61.0 °F 38.9 °F 29.94 in NW 2.0 mph 7.0 mph 44% 0.00 in 33 W/m2
18:58 61.0 °F 40.1 °F 29.94 in NW 3.0 mph 7.0 mph 46% 0.00 in 30 W/m2
19:04 61.0 °F 40.6 °F 29.94 in WSW 2.0 mph 3.0 mph 47% 0.00 in 37 W/m2
19:10 61.0 °F 40.6 °F 29.94 in WSW 2.0 mph 4.0 mph 47% 0.00 in 32 W/m2
19:16 60.9 °F 40.5 °F 29.94 in North 1.0 mph 4.0 mph 47% 0.00 in 30 W/m2
19:22 60.8 °F 41.0 °F 29.94 in NNW 1.0 mph 2.0 mph 48% 0.00 in 25 W/m2
19:28 60.7 °F 39.2 °F 29.94 in NNW 2.0 mph 4.0 mph 45% 0.00 in 25 W/m2
19:34 60.6 °F 39.1 °F 29.94 in NW 2.0 mph 5.0 mph 45% 0.00 in 35 W/m2
19:40 60.4 °F 39.5 °F 29.94 in NW 2.0 mph 2.0 mph 46% 0.00 in 23 W/m2
19:48 60.1 °F 40.3 °F 29.94 in NW 1.0 mph 2.0 mph 48% 0.00 in 21 W/m2
19:54 59.8 °F 40.1 °F 29.94 in WNW 1.0 mph 1.0 mph 48% 0.00 in 19 W/m2
20:00 59.5 °F 40.8 °F 29.94 in NNW 1.0 mph 2.0 mph 50% 0.00 in 16 W/m2
20:06 59.2 °F 41.6 °F 29.94 in NNW 1.0 mph 2.0 mph 52% 0.00 in 14 W/m2
20:12 58.9 °F 40.3 °F 29.94 in WNW 1.0 mph 2.0 mph 50% 0.00 in 12 W/m2
20:18 58.6 °F 41.0 °F 29.94 in Calm   2.0 mph 52% 0.00 in 11 W/m2
20:24 58.2 °F 41.1 °F 29.94 in Calm     53% 0.00 in 9 W/m2
20:30 57.7 °F 40.7 °F 29.94 in Calm     53% 0.00 in 7 W/m2
20:36 57.4 °F 40.9 °F 29.94 in Calm   1.0 mph 54% 0.00 in 5 W/m2
20:42 56.9 °F 40.9 °F 29.94 in Calm     55% 0.00 in 0 W/m2
20:48 56.5 °F 41.0 °F 29.94 in Calm     56% 0.00 in 0 W/m2
20:54 56.1 °F 41.1 °F 29.94 in Calm     57% 0.00 in 0 W/m2
21:00 55.6 °F 41.0 °F 29.94 in Calm     58% 0.00 in 0 W/m2
21:06 55.1 °F 40.6 °F 29.94 in Calm     58% 0.00 in 0 W/m2
21:12 54.8 °F 43.7 °F 29.94 in Calm     66% 0.00 in 0 W/m2
21:18 53.8 °F 43.9 °F 29.94 in Calm     69% 0.00 in 0 W/m2
21:24 53.3 °F 43.8 °F 29.94 in Calm     70% 0.00 in 0 W/m2
21:30 52.6 °F 43.5 °F 29.94 in Calm     71% 0.00 in 0 W/m2
21:36 52.2 °F 43.1 °F 29.94 in Calm     71% 0.00 in 0 W/m2
21:42 51.8 °F 43.1 °F 29.94 in Calm     72% 0.00 in 0 W/m2
21:48 51.4 °F 42.7 °F 29.95 in Calm     72% 0.00 in 0 W/m2
21:54 51.1 °F 42.4 °F 29.95 in Calm     72% 0.00 in 0 W/m2
22:00 50.8 °F 42.5 °F 29.95 in Calm     73% 0.00 in 0 W/m2
22:06 50.6 °F 43.0 °F 29.95 in Calm     75% 0.00 in 0 W/m2
22:12 50.4 °F 42.8 °F 29.95 in Calm     75% 0.00 in 0 W/m2
22:18 50.1 °F 42.8 °F 29.95 in Calm     76% 0.00 in 0 W/m2
22:24 49.9 °F 43.0 °F 29.95 in Calm     77% 0.00 in 0 W/m2
22:30 49.7 °F 43.1 °F 29.95 in Calm     78% 0.00 in 0 W/m2
22:36 49.4 °F 43.2 °F 29.95 in Calm     79% 0.00 in 0 W/m2
22:42 49.1 °F 42.9 °F 29.94 in Calm     79% 0.00 in 0 W/m2
22:48 48.9 °F 42.7 °F 29.94 in Calm     79% 0.00 in 0 W/m2
22:54 48.5 °F 42.6 °F 29.94 in Calm     80% 0.00 in 0 W/m2
23:00 48.3 °F 42.7 °F 29.94 in Calm     81% 0.00 in 0 W/m2
23:06 48.1 °F 42.9 °F 29.94 in Calm     82% 0.00 in 0 W/m2
23:12 47.9 °F 42.7 °F 29.94 in Calm     82% 0.00 in 0 W/m2
23:18 47.7 °F 42.5 °F 29.94 in Calm     82% 0.00 in 0 W/m2
23:24 47.6 °F 42.7 °F 29.94 in Calm     83% 0.00 in 0 W/m2
23:30 47.5 °F 42.6 °F 29.94 in Calm     83% 0.00 in 0 W/m2
23:36 47.6 °F 43.0 °F 29.94 in Calm     84% 0.00 in 0 W/m2
23:42 47.7 °F 43.4 °F 29.94 in Calm     85% 0.00 in 0 W/m2
23:48 47.6 °F 43.3 °F 29.94 in Calm     85% 0.00 in 0 W/m2
23:54 47.4 °F 42.8 °F 29.93 in Calm     84% 0.00 in 0 W/m2
Country Meadow, Clay, NY, USA
Compliments of Weather Underground - 2 mb